createdAt,value
2022-10-31T00:01:41.539Z,23.23
2022-10-31T00:04:10.398Z,22.17
2022-10-31T00:06:38.646Z,23.20
2022-10-31T00:09:12.164Z,27.17
2022-10-31T00:11:40.469Z,23.37
2022-10-31T00:14:09.579Z,24.97
2022-10-31T00:16:38.602Z,25.80
2022-10-31T00:19:09.561Z,25.17
2022-10-31T00:21:38.938Z,127.23
2022-10-31T00:24:09.579Z,79.63
2022-10-31T00:26:40.406Z,32.60
2022-10-31T00:29:08.702Z,30.00
2022-10-31T00:31:37.397Z,30.03
2022-10-31T00:34:09.585Z,26.53
2022-10-31T00:36:37.851Z,25.00
2022-10-31T00:39:16.784Z,26.53
2022-10-31T00:41:45.409Z,25.60
2022-10-31T00:44:14.583Z,23.30
2022-10-31T00:46:43.214Z,27.87
2022-10-31T00:49:13.313Z,22.37
2022-10-31T00:51:45.267Z,23.37
2022-10-31T00:54:18.689Z,26.40
2022-10-31T00:56:47.592Z,23.20
2022-10-31T00:59:15.795Z,27.43
2022-10-31T01:01:44.672Z,22.03
2022-10-31T01:04:13.423Z,22.30
2022-10-31T01:06:41.676Z,24.07
2022-10-31T01:09:10.176Z,20.63
2022-10-31T01:11:39.734Z,23.47
2022-10-31T01:14:11.570Z,24.10
2022-10-31T01:16:41.391Z,23.13
2022-10-31T01:19:10.582Z,20.40
2022-10-31T01:21:40.643Z,24.70
2022-10-31T01:24:10.651Z,23.00
2022-10-31T01:26:41.649Z,28.27
2022-10-31T01:29:11.497Z,25.50
2022-10-31T01:31:43.546Z,26.37
2022-10-31T01:34:18.647Z,29.47
2022-10-31T01:36:52.374Z,34.57
2022-10-31T01:39:21.563Z,25.47
2022-10-31T01:41:57.402Z,31.17
2022-10-31T01:44:54.648Z,32.17
2022-10-31T01:47:34.635Z,30.13
2022-10-31T01:50:06.622Z,30.70
2022-10-31T01:52:42.607Z,31.27
2022-10-31T01:55:16.612Z,32.10
2022-10-31T01:57:50.881Z,35.73
2022-10-31T02:00:21.521Z,34.47
2022-10-31T02:02:57.049Z,32.50
2022-10-31T02:05:28.193Z,29.57
2022-10-31T02:08:00.759Z,32.10
2022-10-31T02:10:34.438Z,35.63
2022-10-31T02:13:09.154Z,33.70
2022-10-31T02:15:47.611Z,33.73
2022-10-31T02:18:18.310Z,33.10
2022-10-31T02:20:56.734Z,33.43
2022-10-31T02:23:54.449Z,33.70
2022-10-31T02:26:55.624Z,32.40
2022-10-31T02:30:06.605Z,35.53
2022-10-31T02:32:53.620Z,32.97
2022-10-31T02:35:38.640Z,31.07
2022-10-31T02:38:19.467Z,32.70
2022-10-31T02:40:55.009Z,34.13
2022-10-31T02:43:50.225Z,35.50
2022-10-31T02:46:30.484Z,32.03
2022-10-31T02:49:07.459Z,33.33
2022-10-31T02:51:39.713Z,35.47
2022-10-31T02:54:18.664Z,37.57
2022-10-31T02:56:47.670Z,35.10
2022-10-31T02:59:16.034Z,32.10
2022-10-31T03:02:03.757Z,33.13
2022-10-31T03:05:14.490Z,31.77
2022-10-31T03:07:51.335Z,30.70
2022-10-31T03:10:28.613Z,33.90
2022-10-31T03:13:04.885Z,32.63
2022-10-31T03:15:36.242Z,33.37
2022-10-31T03:18:09.846Z,34.23
2022-10-31T03:20:43.685Z,34.40
2022-10-31T03:23:17.648Z,34.57
2022-10-31T03:25:53.694Z,37.83
2022-10-31T03:28:31.688Z,34.77
2022-10-31T03:31:04.874Z,33.90
2022-10-31T03:33:40.633Z,35.30
2022-10-31T03:36:14.668Z,32.47
2022-10-31T03:38:44.984Z,34.03
2022-10-31T03:41:18.727Z,33.73
2022-10-31T03:43:54.338Z,32.30
2022-10-31T03:46:24.478Z,35.80
2022-10-31T03:48:55.834Z,35.43
2022-10-31T03:51:29.707Z,35.17
2022-10-31T03:54:04.657Z,35.93
2022-10-31T03:56:39.509Z,34.00
2022-10-31T03:59:12.680Z,37.90
2022-10-31T04:01:51.789Z,33.73
2022-10-31T04:04:22.242Z,35.47
2022-10-31T04:06:54.694Z,35.53
2022-10-31T04:09:24.676Z,35.27
2022-10-31T04:11:56.529Z,36.13
2022-10-31T04:14:52.114Z,33.20
2022-10-31T04:17:26.771Z,32.33
2022-10-31T04:19:55.635Z,34.63
2022-10-31T04:22:29.727Z,33.10
2022-10-31T04:25:02.695Z,39.30
2022-10-31T04:27:31.494Z,33.83
2022-10-31T04:30:01.154Z,35.37
2022-10-31T04:32:29.700Z,33.27
2022-10-31T04:34:58.662Z,35.63
2022-10-31T04:37:35.581Z,34.43
2022-10-31T04:40:06.660Z,34.80
2022-10-31T04:43:05.330Z,33.60
2022-10-31T04:45:34.339Z,33.07
2022-10-31T04:48:07.525Z,35.13
2022-10-31T04:50:38.685Z,34.40
2022-10-31T04:53:08.374Z,31.57
2022-10-31T04:55:45.656Z,34.80
2022-10-31T04:58:23.848Z,34.67
2022-10-31T05:00:54.826Z,35.23
2022-10-31T05:03:23.657Z,39.37
2022-10-31T05:05:52.383Z,36.27
2022-10-31T05:08:23.475Z,36.47
2022-10-31T05:10:54.684Z,38.07
2022-10-31T05:13:24.513Z,41.10
2022-10-31T05:16:11.004Z,49.83
2022-10-31T05:18:50.993Z,43.17
2022-10-31T05:21:48.446Z,38.33
2022-10-31T05:24:18.678Z,41.13
2022-10-31T05:26:49.740Z,39.77
2022-10-31T05:29:18.678Z,46.93
2022-10-31T05:31:46.781Z,37.57
2022-10-31T05:34:38.049Z,40.00
2022-10-31T05:37:29.350Z,39.00
2022-10-31T05:40:05.165Z,39.30
2022-10-31T05:42:36.361Z,40.57
2022-10-31T05:45:06.307Z,41.10
2022-10-31T05:47:53.533Z,37.37
2022-10-31T05:50:40.263Z,42.83
2022-10-31T05:53:12.568Z,35.27
2022-10-31T05:55:45.008Z,35.27
2022-10-31T05:58:20.626Z,37.37
2022-10-31T06:01:01.726Z,35.20
2022-10-31T06:03:31.597Z,37.57
2022-10-31T06:06:02.005Z,34.93
2022-10-31T06:08:39.732Z,35.87
2022-10-31T06:11:15.250Z,33.17
2022-10-31T06:14:07.583Z,35.53
2022-10-31T06:16:58.740Z,39.00
2022-10-31T06:19:47.725Z,32.33
2022-10-31T06:22:21.723Z,34.53
2022-10-31T06:24:50.551Z,36.20
2022-10-31T06:27:30.732Z,37.73
2022-10-31T06:30:12.416Z,37.20
2022-10-31T06:32:44.544Z,38.13
2022-10-31T06:35:12.905Z,37.33
2022-10-31T06:37:44.450Z,36.67
2022-10-31T06:40:30.455Z,38.30
2022-10-31T06:43:29.765Z,36.63
2022-10-31T06:46:18.445Z,37.47
2022-10-31T06:49:09.727Z,36.07
2022-10-31T06:51:50.695Z,38.80
2022-10-31T06:54:23.174Z,35.40
2022-10-31T06:56:51.320Z,40.67
2022-10-31T06:59:21.769Z,37.60
2022-10-31T07:02:11.813Z,38.37
2022-10-31T07:04:42.564Z,38.57
2022-10-31T07:07:14.391Z,36.80
2022-10-31T07:09:42.548Z,40.83
2022-10-31T07:12:12.553Z,38.30
2022-10-31T07:14:53.375Z,37.83
2022-10-31T07:17:29.669Z,32.10
2022-10-31T07:20:02.734Z,32.30
2022-10-31T07:22:35.744Z,34.60
2022-10-31T07:25:09.371Z,34.57
2022-10-31T07:27:56.108Z,36.00
2022-10-31T07:30:26.951Z,40.13
2022-10-31T07:32:58.811Z,35.03
2022-10-31T07:35:40.619Z,37.40
2022-10-31T07:38:11.582Z,43.70
2022-10-31T07:40:40.749Z,43.77
2022-10-31T07:43:13.993Z,42.70
2022-10-31T07:46:09.801Z,43.17
2022-10-31T07:49:16.751Z,42.83
2022-10-31T07:52:05.620Z,42.93
2022-10-31T07:55:14.608Z,46.87
2022-10-31T07:57:48.751Z,47.67
2022-10-31T08:00:17.554Z,57.90
2022-10-31T08:02:47.602Z,44.50
2022-10-31T08:05:46.895Z,41.43
2022-10-31T08:08:37.551Z,44.30
2022-10-31T08:11:07.607Z,48.93
2022-10-31T08:13:36.757Z,48.33
2022-10-31T08:16:08.774Z,45.23
2022-10-31T08:18:46.811Z,42.77
2022-10-31T08:21:16.771Z,44.80
2022-10-31T08:23:51.856Z,44.67
2022-10-31T08:26:23.824Z,43.97
2022-10-31T08:28:55.619Z,35.80
2022-10-31T08:31:34.370Z,36.23
2022-10-31T08:34:43.750Z,38.30
2022-10-31T08:37:35.628Z,41.47
2022-10-31T08:40:06.401Z,39.83
2022-10-31T08:42:36.233Z,34.90
2022-10-31T08:45:08.549Z,34.10
2022-10-31T08:47:39.631Z,31.97
2022-10-31T08:50:10.819Z,29.53
2022-10-31T08:53:03.744Z,28.40
2022-10-31T08:55:28.596Z,25.37
2022-10-31T08:58:12.056Z,25.83
2022-10-31T09:00:51.337Z,23.90
2022-10-31T09:03:27.943Z,30.00
2022-10-31T09:05:59.828Z,28.03
2022-10-31T09:08:35.946Z,31.97
2022-10-31T09:11:08.923Z,23.13
2022-10-31T09:13:56.818Z,24.43
2022-10-31T09:16:31.469Z,23.23
2022-10-31T09:19:00.794Z,27.17
2022-10-31T09:21:30.841Z,22.10
2022-10-31T09:24:02.154Z,22.90
2022-10-31T09:26:31.650Z,22.63
2022-10-31T09:29:11.425Z,23.20
2022-10-31T09:31:44.923Z,23.67
2022-10-31T09:34:46.815Z,24.60
2022-10-31T09:37:21.808Z,28.07
2022-10-31T09:39:50.834Z,26.93
2022-10-31T09:42:46.303Z,28.93
2022-10-31T09:45:25.710Z,23.80
2022-10-31T09:48:12.953Z,21.27
2022-10-31T09:51:03.878Z,24.83
2022-10-31T09:53:40.868Z,24.77
2022-10-31T09:56:38.228Z,25.83
2022-10-31T09:59:14.539Z,25.83
2022-10-31T10:01:50.555Z,30.23
2022-10-31T10:04:40.391Z,27.97
2022-10-31T10:07:27.881Z,31.23
2022-10-31T10:10:16.751Z,28.30
2022-10-31T10:13:28.858Z,29.20
2022-10-31T10:16:14.661Z,33.30
2022-10-31T10:19:03.907Z,30.10
2022-10-31T10:21:43.664Z,29.87
2022-10-31T10:24:27.178Z,34.33
2022-10-31T10:27:07.639Z,35.87
2022-10-31T10:29:42.010Z,31.80
2022-10-31T10:32:16.798Z,31.23
2022-10-31T10:34:49.860Z,25.87
2022-10-31T10:37:26.328Z,38.13
2022-10-31T10:39:58.600Z,30.27
2022-10-31T10:42:47.684Z,27.20
2022-10-31T10:45:36.396Z,28.43
2022-10-31T10:48:13.670Z,28.00
2022-10-31T10:50:47.389Z,27.90
2022-10-31T10:53:36.449Z,28.63
2022-10-31T10:56:17.675Z,33.63
2022-10-31T10:58:47.366Z,30.13
2022-10-31T11:01:17.936Z,27.30
2022-10-31T11:03:46.354Z,26.60
2022-10-31T11:06:26.356Z,24.63
2022-10-31T11:08:55.077Z,24.10
2022-10-31T11:11:31.714Z,23.63
2022-10-31T11:14:07.759Z,21.75
2022-10-31T11:16:41.564Z,23.83
2022-10-31T11:19:16.904Z,19.80
2022-10-31T11:21:51.247Z,20.13
2022-10-31T11:24:27.223Z,20.70
2022-10-31T11:27:13.770Z,21.73
2022-10-31T11:29:43.787Z,20.17
2022-10-31T11:32:22.762Z,21.65
2022-10-31T11:34:53.891Z,22.90
2022-10-31T11:37:25.926Z,24.13
2022-10-31T11:40:00.900Z,19.05
2022-10-31T11:42:32.693Z,22.20
2022-10-31T11:45:07.896Z,23.05
2022-10-31T11:47:37.855Z,22.08
2022-10-31T11:50:20.878Z,22.13
2022-10-31T11:52:49.944Z,19.52
2022-10-31T11:55:33.290Z,20.92
2022-10-31T11:58:05.981Z,28.98
2022-10-31T12:00:41.864Z,21.27
2022-10-31T12:03:17.803Z,19.17
2022-10-31T12:05:49.329Z,21.70
2022-10-31T12:08:20.748Z,19.67
2022-10-31T12:11:02.809Z,19.17
2022-10-31T12:13:36.727Z,17.98
2022-10-31T12:16:14.711Z,22.30
2022-10-31T12:18:55.376Z,17.80
2022-10-31T12:21:52.006Z,20.67
2022-10-31T12:24:35.395Z,15.95
2022-10-31T12:27:19.099Z,18.95
2022-10-31T12:30:03.995Z,20.55
2022-10-31T12:32:46.834Z,21.48
2022-10-31T12:35:46.966Z,18.63
2022-10-31T12:38:32.897Z,17.60
2022-10-31T12:41:20.339Z,19.35
2022-10-31T12:43:55.997Z,21.38
2022-10-31T12:46:33.678Z,17.98
2022-10-31T12:49:28.616Z,18.80
2022-10-31T12:52:14.997Z,18.17
2022-10-31T12:55:02.021Z,19.70
2022-10-31T12:57:37.101Z,20.40
2022-10-31T13:00:17.070Z,18.98
2022-10-31T13:02:51.927Z,16.83
2022-10-31T13:05:33.107Z,20.77
2022-10-31T13:08:07.575Z,20.00
2022-10-31T13:10:42.936Z,20.20
2022-10-31T13:13:18.761Z,25.58
2022-10-31T13:15:52.881Z,19.38
2022-10-31T13:18:29.093Z,18.42
2022-10-31T13:21:01.613Z,18.42
2022-10-31T13:23:51.282Z,20.77
2022-10-31T13:26:26.972Z,22.70
2022-10-31T13:29:03.905Z,15.52
2022-10-31T13:31:32.367Z,17.65
2022-10-31T13:34:04.951Z,17.98
2022-10-31T13:36:44.769Z,20.02
2022-10-31T13:39:24.926Z,19.88
2022-10-31T13:41:56.793Z,18.70
2022-10-31T13:44:28.039Z,19.80
2022-10-31T13:46:57.712Z,19.85
2022-10-31T13:49:41.460Z,17.70
2022-10-31T13:52:25.353Z,16.05
2022-10-31T13:54:59.272Z,18.38
2022-10-31T13:57:38.698Z,18.65
2022-10-31T14:00:25.044Z,18.33
2022-10-31T14:02:59.714Z,19.13
2022-10-31T14:05:32.071Z,20.27
2022-10-31T14:08:07.862Z,19.55
2022-10-31T14:10:40.069Z,19.17
2022-10-31T14:13:11.220Z,20.58
2022-10-31T14:15:44.553Z,24.90
2022-10-31T14:18:24.946Z,24.48
2022-10-31T14:20:54.981Z,31.40
2022-10-31T14:23:48.332Z,48.38
2022-10-31T14:26:26.043Z,32.90
2022-10-31T14:28:56.059Z,30.52
2022-10-31T14:31:38.320Z,28.60
2022-10-31T14:34:24.920Z,30.35
2022-10-31T14:37:04.063Z,27.25
2022-10-31T14:39:38.809Z,27.02
2022-10-31T14:42:23.702Z,30.40
2022-10-31T14:45:23.865Z,28.63
2022-10-31T14:48:06.931Z,27.45
2022-10-31T14:50:48.019Z,29.93
2022-10-31T14:53:21.800Z,31.33
2022-10-31T14:55:55.350Z,34.05
2022-10-31T14:58:30.580Z,35.43
2022-10-31T15:00:59.848Z,28.27
2022-10-31T15:03:34.119Z,33.10
2022-10-31T15:06:08.196Z,34.90
2022-10-31T15:08:40.054Z,38.20
2022-10-31T15:11:18.060Z,36.57
2022-10-31T15:13:48.927Z,33.53
2022-10-31T15:16:23.123Z,38.83
2022-10-31T15:18:55.193Z,31.97
2022-10-31T15:21:26.480Z,34.70
2022-10-31T15:23:57.013Z,37.60
2022-10-31T15:26:35.515Z,31.37
2022-10-31T15:29:05.630Z,34.43
2022-10-31T15:31:34.982Z,36.37
2022-10-31T15:34:07.132Z,36.10
2022-10-31T15:36:38.812Z,32.47
2022-10-31T15:39:08.034Z,37.63
2022-10-31T15:41:53.971Z,33.83
2022-10-31T15:44:29.052Z,32.53
2022-10-31T15:47:00.020Z,31.97
2022-10-31T15:49:37.039Z,33.00
2022-10-31T15:52:09.328Z,32.97
2022-10-31T15:54:43.128Z,34.87
2022-10-31T15:57:14.263Z,41.50
2022-10-31T15:59:47.030Z,39.77
2022-10-31T16:02:19.217Z,36.60
2022-10-31T16:04:52.929Z,37.03
2022-10-31T16:07:23.521Z,39.77
2022-10-31T16:09:55.102Z,39.33
2022-10-31T16:12:26.674Z,38.80
2022-10-31T16:14:59.534Z,42.50
2022-10-31T16:17:30.071Z,38.27
2022-10-31T16:20:00.981Z,44.77
2022-10-31T16:22:31.998Z,44.73
2022-10-31T16:25:06.945Z,42.43
2022-10-31T16:27:39.106Z,41.43
2022-10-31T16:30:47.767Z,44.93
2022-10-31T16:33:26.934Z,43.23
2022-10-31T16:36:04.500Z,42.07
2022-10-31T16:38:46.031Z,43.27
2022-10-31T16:41:14.459Z,41.73
2022-10-31T16:43:46.608Z,42.83
2022-10-31T16:46:20.572Z,39.47
2022-10-31T16:48:48.899Z,39.80
2022-10-31T16:51:17.162Z,39.43
2022-10-31T16:53:46.906Z,40.13
2022-10-31T16:56:25.046Z,44.60
2022-10-31T16:58:58.382Z,41.37
2022-10-31T17:01:27.017Z,40.67
2022-10-31T17:03:55.346Z,33.90
2022-10-31T17:06:23.570Z,38.70
2022-10-31T17:08:51.861Z,37.83
2022-10-31T17:11:27.735Z,43.27
2022-10-31T17:13:57.858Z,42.00
2022-10-31T17:16:26.122Z,39.43
2022-10-31T17:18:54.273Z,37.10
2022-10-31T17:21:25.031Z,42.43
2022-10-31T17:23:57.103Z,39.13
2022-10-31T17:26:25.220Z,45.73
2022-10-31T17:28:53.669Z,42.43
2022-10-31T17:31:25.897Z,45.17
2022-10-31T17:34:02.111Z,40.30
2022-10-31T17:36:31.915Z,46.33
2022-10-31T17:39:01.140Z,44.57
2022-10-31T17:41:32.382Z,49.90
2022-10-31T17:44:01.285Z,51.07
2022-10-31T17:46:30.838Z,52.67
2022-10-31T17:49:00.929Z,51.83
2022-10-31T17:51:29.251Z,58.60
2022-10-31T17:54:01.150Z,86.53
2022-10-31T17:56:29.890Z,61.53
2022-10-31T17:58:59.206Z,62.47
2022-10-31T18:01:27.654Z,58.80
2022-10-31T18:03:58.613Z,62.63
2022-10-31T18:06:28.216Z,65.77
2022-10-31T18:08:58.186Z,66.00
2022-10-31T18:11:26.455Z,68.80
2022-10-31T18:13:57.240Z,68.93
2022-10-31T18:16:26.181Z,68.00
2022-10-31T18:18:59.262Z,64.63
2022-10-31T18:21:28.086Z,73.03
2022-10-31T18:23:58.183Z,68.87
2022-10-31T18:26:29.620Z,66.07
2022-10-31T18:28:59.165Z,74.03
2022-10-31T18:31:27.390Z,73.27
2022-10-31T18:33:58.031Z,82.27
2022-10-31T18:36:27.188Z,69.20
2022-10-31T18:38:55.294Z,72.27
2022-10-31T18:41:26.758Z,70.70
2022-10-31T18:44:00.199Z,64.10
2022-10-31T18:46:29.559Z,66.80
2022-10-31T18:48:59.484Z,68.93
2022-10-31T18:51:28.086Z,64.43
2022-10-31T18:53:58.122Z,64.27
2022-10-31T18:56:27.112Z,137.13
2022-10-31T18:58:56.110Z,82.17
2022-10-31T19:01:27.553Z,64.77
2022-10-31T19:03:58.981Z,65.03
2022-10-31T19:06:30.930Z,58.53
2022-10-31T19:09:03.362Z,57.37
2022-10-31T19:11:33.548Z,61.97
2022-10-31T19:14:02.228Z,65.40
2022-10-31T19:16:30.984Z,79.13
2022-10-31T19:19:03.724Z,65.57
2022-10-31T19:21:32.532Z,45.80
2022-10-31T19:24:01.681Z,42.47
2022-10-31T19:26:30.139Z,51.03
2022-10-31T19:28:58.525Z,47.90
2022-10-31T19:31:26.915Z,43.83
2022-10-31T19:33:55.171Z,39.30
2022-10-31T19:36:26.841Z,46.23
2022-10-31T19:38:55.364Z,46.33
2022-10-31T19:41:26.137Z,38.33
2022-10-31T19:43:58.397Z,38.20
2022-10-31T19:46:52.797Z,40.20
2022-10-31T19:49:15.142Z,68.03
2022-10-31T19:51:44.616Z,44.07
2022-10-31T19:54:16.896Z,43.83
2022-10-31T19:56:45.115Z,41.40
2022-10-31T19:59:13.833Z,41.43
2022-10-31T20:01:42.061Z,43.33
2022-10-31T20:04:11.132Z,48.07
2022-10-31T20:06:45.278Z,45.83
2022-10-31T20:09:15.682Z,45.13
2022-10-31T20:11:45.115Z,62.13
2022-10-31T20:14:16.213Z,43.73
2022-10-31T20:16:45.898Z,46.30
2022-10-31T20:19:14.042Z,42.17
2022-10-31T20:21:42.889Z,39.33
2022-10-31T20:24:12.476Z,46.87
2022-10-31T20:26:42.657Z,47.63
2022-10-31T20:29:15.874Z,53.87
2022-10-31T20:31:45.490Z,59.20
2022-10-31T20:34:14.178Z,61.93
2022-10-31T20:36:42.327Z,55.50
2022-10-31T20:39:13.455Z,60.43
2022-10-31T20:41:42.992Z,58.77
2022-10-31T20:44:11.230Z,59.37
2022-10-31T20:46:39.676Z,65.87
2022-10-31T20:49:08.321Z,63.47
2022-10-31T20:51:36.498Z,58.73
2022-10-31T20:54:08.394Z,58.60
2022-10-31T20:56:36.596Z,65.43
2022-10-31T20:59:07.139Z,60.63
2022-10-31T21:01:37.028Z,63.10
2022-10-31T21:04:08.750Z,63.97
2022-10-31T21:06:36.921Z,55.57
2022-10-31T21:09:06.260Z,53.53
2022-10-31T21:11:34.606Z,42.87
2022-10-31T21:14:02.765Z,41.23
2022-10-31T21:16:36.002Z,45.27
2022-10-31T21:19:05.375Z,43.37
2022-10-31T21:21:35.599Z,41.83
2022-10-31T21:24:06.033Z,44.47
2022-10-31T21:26:38.361Z,54.67
2022-10-31T21:29:08.171Z,57.73
2022-10-31T21:31:39.349Z,56.37
2022-10-31T21:34:07.873Z,58.93
2022-10-31T21:36:37.204Z,52.93
2022-10-31T21:39:09.304Z,50.27
2022-10-31T21:41:38.093Z,43.43
2022-10-31T21:44:06.931Z,43.83
2022-10-31T21:46:35.366Z,47.00
2022-10-31T21:49:08.275Z,46.93
2022-10-31T21:51:38.174Z,49.83
2022-10-31T21:54:24.184Z,49.27
2022-10-31T21:56:52.731Z,43.67
2022-10-31T21:59:25.437Z,46.10
2022-10-31T22:01:56.228Z,44.70
2022-10-31T22:04:27.185Z,43.00
2022-10-31T22:06:59.960Z,43.40
2022-10-31T22:09:28.132Z,45.47
2022-10-31T22:11:56.303Z,44.03
2022-10-31T22:14:24.734Z,40.40
2022-10-31T22:16:52.909Z,48.83
2022-10-31T22:19:21.188Z,46.37
2022-10-31T22:21:50.843Z,43.83
2022-10-31T22:24:21.544Z,45.53
2022-10-31T22:26:50.029Z,42.20
2022-10-31T22:29:21.527Z,45.10
2022-10-31T22:31:58.651Z,41.87
2022-10-31T22:34:29.728Z,41.00
2022-10-31T22:37:02.319Z,42.53
2022-10-31T22:39:30.581Z,40.57
2022-10-31T22:41:58.780Z,39.97
2022-10-31T22:44:28.022Z,39.83
2022-10-31T22:46:56.307Z,41.97
2022-10-31T22:49:25.201Z,42.70
2022-10-31T22:51:53.374Z,41.20
2022-10-31T22:54:25.682Z,40.87
2022-10-31T22:56:53.924Z,45.47
2022-10-31T22:59:23.076Z,41.13
2022-10-31T23:01:54.457Z,40.60
2022-10-31T23:04:25.491Z,43.93
2022-10-31T23:06:54.237Z,45.27
2022-10-31T23:09:24.011Z,42.43
2022-10-31T23:11:52.221Z,44.23
2022-10-31T23:14:21.299Z,44.73
2022-10-31T23:16:52.089Z,45.23
2022-10-31T23:19:24.232Z,44.80
2022-10-31T23:21:58.061Z,43.73
2022-10-31T23:24:36.012Z,44.87
2022-10-31T23:27:08.515Z,41.43
2022-10-31T23:29:45.792Z,42.30
2022-10-31T23:32:21.095Z,40.03
2022-10-31T23:34:50.687Z,41.83
2022-10-31T23:37:20.731Z,43.23
2022-10-31T23:39:53.795Z,44.50
2022-10-31T23:42:22.546Z,40.63
2022-10-31T23:44:52.274Z,47.07
2022-10-31T23:47:21.074Z,43.10
2022-10-31T23:49:50.740Z,45.57
2022-10-31T23:52:19.628Z,43.90
2022-10-31T23:54:50.255Z,42.23
2022-10-31T23:57:19.042Z,39.63
2022-10-31T23:59:48.458Z,45.30
